Illizi, Algeria
Current Conditions -  °F | °C
As of 1:00 PM on Friday 31 Oct 2014 (Local Time) from DAAP Reporting Station
Broken Clouds Broken Clouds  
Wind Chill: 26°   Ceiling: 4600
Heat Index: 26°   Visibility: 4mi
Dew Point:   Wind: 12mph
Humidity: 26%   Direction: 60°ENE
Pressure: 29.97"   Gusts: NA
Location:  26.5°N, 8.42°E
Report Text: DAAP 311200Z 06010KT 6000 BKN046 26/05 Q1015
Loading
Personal Weather Stations






























Interactive Weather Map
Tropical Storm Tracking
New forecast layout! Learn more

10-Day Weather Forecast

Advertisements
Track Severe Weather on mobile